sensor_id;sensor_type;location;lat;lon;timestamp;temperature;humidity
3356;DHT22;1691;52.486;13.374;2023-07-09T00:01:18;21.30;52.70
3356;DHT22;1691;52.486;13.374;2023-07-09T00:03:46;21.20;52.90
3356;DHT22;1691;52.486;13.374;2023-07-09T00:06:19;21.20;53.00
3356;DHT22;1691;52.486;13.374;2023-07-09T00:08:48;21.20;53.20
3356;DHT22;1691;52.486;13.374;2023-07-09T00:11:16;21.20;53.30
3356;DHT22;1691;52.486;13.374;2023-07-09T00:13:44;21.10;53.50
3356;DHT22;1691;52.486;13.374;2023-07-09T00:16:23;21.10;53.80
3356;DHT22;1691;52.486;13.374;2023-07-09T00:18:51;21.10;53.90
3356;DHT22;1691;52.486;13.374;2023-07-09T00:21:19;21.10;54.10
3356;DHT22;1691;52.486;13.374;2023-07-09T00:23:47;21.10;54.10
3356;DHT22;1691;52.486;13.374;2023-07-09T00:26:17;21.00;54.20
3356;DHT22;1691;52.486;13.374;2023-07-09T00:28:47;21.00;54.40
3356;DHT22;1691;52.486;13.374;2023-07-09T00:31:16;21.00;54.50
3356;DHT22;1691;52.486;13.374;2023-07-09T00:33:44;21.00;54.70
3356;DHT22;1691;52.486;13.374;2023-07-09T00:36:37;20.90;54.70
3356;DHT22;1691;52.486;13.374;2023-07-09T00:39:03;20.90;55.20
3356;DHT22;1691;52.486;13.374;2023-07-09T00:41:36;20.90;55.20
3356;DHT22;1691;52.486;13.374;2023-07-09T00:44:31;20.90;55.30
3356;DHT22;1691;52.486;13.374;2023-07-09T00:49:33;20.90;55.50
3356;DHT22;1691;52.486;13.374;2023-07-09T00:52:20;20.90;55.60
3356;DHT22;1691;52.486;13.374;2023-07-09T00:54:50;20.80;56.10
3356;DHT22;1691;52.486;13.374;2023-07-09T00:57:22;20.80;56.10
3356;DHT22;1691;52.486;13.374;2023-07-09T00:59:55;20.80;56.20
3356;DHT22;1691;52.486;13.374;2023-07-09T01:02:23;20.80;56.40
3356;DHT22;1691;52.486;13.374;2023-07-09T01:04:55;20.80;56.40
3356;DHT22;1691;52.486;13.374;2023-07-09T01:07:23;20.80;56.50
3356;DHT22;1691;52.486;13.374;2023-07-09T01:09:50;20.80;56.50
3356;DHT22;1691;52.486;13.374;2023-07-09T01:12:19;20.80;56.70
3356;DHT22;1691;52.486;13.374;2023-07-09T01:14:50;20.80;56.90
3356;DHT22;1691;52.486;13.374;2023-07-09T01:17:19;20.80;56.90
3356;DHT22;1691;52.486;13.374;2023-07-09T01:19:50;20.80;57.00
3356;DHT22;1691;52.486;13.374;2023-07-09T01:22:19;20.80;57.00
3356;DHT22;1691;52.486;13.374;2023-07-09T01:27:54;20.80;57.30
3356;DHT22;1691;52.486;13.374;2023-07-09T01:30:23;20.70;57.30
3356;DHT22;1691;52.486;13.374;2023-07-09T01:32:51;20.70;57.50
3356;DHT22;1691;52.486;13.374;2023-07-09T01:35:20;20.70;57.50
3356;DHT22;1691;52.486;13.374;2023-07-09T01:37:48;20.60;57.60
3356;DHT22;1691;52.486;13.374;2023-07-09T01:40:18;20.60;57.80
3356;DHT22;1691;52.486;13.374;2023-07-09T01:42:59;20.60;58.10
3356;DHT22;1691;52.486;13.374;2023-07-09T01:45:27;20.50;58.10
3356;DHT22;1691;52.486;13.374;2023-07-09T01:47:54;20.50;58.20
3356;DHT22;1691;52.486;13.374;2023-07-09T01:50:22;20.50;58.40
3356;DHT22;1691;52.486;13.374;2023-07-09T01:52:51;20.50;58.50
3356;DHT22;1691;52.486;13.374;2023-07-09T01:55:18;20.50;58.50
3356;DHT22;1691;52.486;13.374;2023-07-09T01:57:45;20.40;58.70
3356;DHT22;1691;52.486;13.374;2023-07-09T02:00:15;20.40;58.70
3356;DHT22;1691;52.486;13.374;2023-07-09T02:02:44;20.40;59.00
3356;DHT22;1691;52.486;13.374;2023-07-09T02:05:17;20.30;59.20
3356;DHT22;1691;52.486;13.374;2023-07-09T02:07:44;20.30;59.30
3356;DHT22;1691;52.486;13.374;2023-07-09T02:10:12;20.30;59.50
3356;DHT22;1691;52.486;13.374;2023-07-09T02:12:39;20.30;59.50
3356;DHT22;1691;52.486;13.374;2023-07-09T02:15:06;20.30;59.60
3356;DHT22;1691;52.486;13.374;2023-07-09T02:17:34;20.20;59.80
3356;DHT22;1691;52.486;13.374;2023-07-09T02:20:01;20.20;59.80
3356;DHT22;1691;52.486;13.374;2023-07-09T02:22:27;20.20;59.90
3356;DHT22;1691;52.486;13.374;2023-07-09T02:24:54;20.20;59.90
3356;DHT22;1691;52.486;13.374;2023-07-09T02:27:21;20.20;60.30
3356;DHT22;1691;52.486;13.374;2023-07-09T02:29:49;20.10;60.30
3356;DHT22;1691;52.486;13.374;2023-07-09T02:32:26;20.10;60.50
3356;DHT22;1691;52.486;13.374;2023-07-09T02:34:54;20.10;60.60
3356;DHT22;1691;52.486;13.374;2023-07-09T02:37:23;20.10;60.60
3356;DHT22;1691;52.486;13.374;2023-07-09T02:39:52;20.00;61.00
3356;DHT22;1691;52.486;13.374;2023-07-09T02:42:20;20.00;61.20
3356;DHT22;1691;52.486;13.374;2023-07-09T02:44:47;20.00;61.40
3356;DHT22;1691;52.486;13.374;2023-07-09T02:47:14;19.90;61.60
3356;DHT22;1691;52.486;13.374;2023-07-09T02:49:42;19.90;61.80
3356;DHT22;1691;52.486;13.374;2023-07-09T02:52:09;19.90;62.10
3356;DHT22;1691;52.486;13.374;2023-07-09T02:54:36;19.80;62.30
3356;DHT22;1691;52.486;13.374;2023-07-09T02:57:03;19.80;62.50
3356;DHT22;1691;52.486;13.374;2023-07-09T02:59:30;19.80;62.90
3356;DHT22;1691;52.486;13.374;2023-07-09T03:01:57;19.70;63.10
3356;DHT22;1691;52.486;13.374;2023-07-09T03:04:24;19.70;63.60
3356;DHT22;1691;52.486;13.374;2023-07-09T03:06:51;19.60;63.80
3356;DHT22;1691;52.486;13.374;2023-07-09T03:09:20;19.60;64.00
3356;DHT22;1691;52.486;13.374;2023-07-09T03:11:47;19.60;64.40
3356;DHT22;1691;52.486;13.374;2023-07-09T03:14:15;19.60;64.40
3356;DHT22;1691;52.486;13.374;2023-07-09T03:16:42;19.60;64.60
3356;DHT22;1691;52.486;13.374;2023-07-09T03:19:10;19.50;64.70
3356;DHT22;1691;52.486;13.374;2023-07-09T03:21:37;19.50;64.70
3356;DHT22;1691;52.486;13.374;2023-07-09T03:24:04;19.60;64.90
3356;DHT22;1691;52.486;13.374;2023-07-09T03:26:31;19.60;64.90
3356;DHT22;1691;52.486;13.374;2023-07-09T03:28:58;19.60;64.90
3356;DHT22;1691;52.486;13.374;2023-07-09T03:31:25;19.60;64.90
3356;DHT22;1691;52.486;13.374;2023-07-09T03:33:52;19.60;64.90
3356;DHT22;1691;52.486;13.374;2023-07-09T03:36:19;19.70;64.90
3356;DHT22;1691;52.486;13.374;2023-07-09T03:38:47;19.70;64.70
3356;DHT22;1691;52.486;13.374;2023-07-09T03:41:15;19.80;64.70
3356;DHT22;1691;52.486;13.374;2023-07-09T03:43:42;19.80;64.60
3356;DHT22;1691;52.486;13.374;2023-07-09T03:46:09;19.80;64.40
3356;DHT22;1691;52.486;13.374;2023-07-09T03:48:36;19.90;64.40
3356;DHT22;1691;52.486;13.374;2023-07-09T03:51:03;19.90;64.20
3356;DHT22;1691;52.486;13.374;2023-07-09T03:53:29;20.00;64.20
3356;DHT22;1691;52.486;13.374;2023-07-09T03:55:56;20.00;64.00
3356;DHT22;1691;52.486;13.374;2023-07-09T03:58:24;20.10;63.80
3356;DHT22;1691;52.486;13.374;2023-07-09T04:00:52;20.20;63.60
3356;DHT22;1691;52.486;13.374;2023-07-09T04:03:21;20.40;63.30
3356;DHT22;1691;52.486;13.374;2023-07-09T04:05:48;20.70;62.90
3356;DHT22;1691;52.486;13.374;2023-07-09T04:08:15;21.20;62.00
3356;DHT22;1691;52.486;13.374;2023-07-09T04:10:42;21.60;60.60
3356;DHT22;1691;52.486;13.374;2023-07-09T04:13:09;22.20;59.50
3356;DHT22;1691;52.486;13.374;2023-07-09T04:15:36;22.70;58.20
3356;DHT22;1691;52.486;13.374;2023-07-09T04:18:03;23.30;57.00
3356;DHT22;1691;52.486;13.374;2023-07-09T04:20:30;23.80;55.60
3356;DHT22;1691;52.486;13.374;2023-07-09T04:22:57;24.30;54.50
3356;DHT22;1691;52.486;13.374;2023-07-09T04:25:24;24.70;53.20
3356;DHT22;1691;52.486;13.374;2023-07-09T04:27:50;25.20;52.10
3356;DHT22;1691;52.486;13.374;2023-07-09T04:30:17;25.50;51.00
3356;DHT22;1691;52.486;13.374;2023-07-09T04:32:45;25.80;49.80
3356;DHT22;1691;52.486;13.374;2023-07-09T04:35:13;26.00;49.20
3356;DHT22;1691;52.486;13.374;2023-07-09T04:37:40;26.30;48.20
3356;DHT22;1691;52.486;13.374;2023-07-09T04:40:08;26.50;47.30
3356;DHT22;1691;52.486;13.374;2023-07-09T04:42:38;26.70;46.50
3356;DHT22;1691;52.486;13.374;2023-07-09T04:45:08;26.90;45.50
3356;DHT22;1691;52.486;13.374;2023-07-09T04:47:36;27.10;44.90
3356;DHT22;1691;52.486;13.374;2023-07-09T04:50:04;27.40;43.90
3356;DHT22;1691;52.486;13.374;2023-07-09T04:52:31;27.70;43.30
3356;DHT22;1691;52.486;13.374;2023-07-09T04:54:58;27.90;42.20
3356;DHT22;1691;52.486;13.374;2023-07-09T04:57:26;27.90;41.80
3356;DHT22;1691;52.486;13.374;2023-07-09T04:59:54;28.00;41.50
3356;DHT22;1691;52.486;13.374;2023-07-09T05:02:22;28.10;41.00
3356;DHT22;1691;52.486;13.374;2023-07-09T05:04:49;28.20;40.70
3356;DHT22;1691;52.486;13.374;2023-07-09T05:07:16;28.30;40.20
3356;DHT22;1691;52.486;13.374;2023-07-09T05:09:43;28.40;39.80
3356;DHT22;1691;52.486;13.374;2023-07-09T05:12:10;28.50;39.50
3356;DHT22;1691;52.486;13.374;2023-07-09T05:14:37;28.80;39.00
3356;DHT22;1691;52.486;13.374;2023-07-09T05:17:04;29.10;38.50
3356;DHT22;1691;52.486;13.374;2023-07-09T05:19:32;29.30;37.90
3356;DHT22;1691;52.486;13.374;2023-07-09T05:21:59;29.40;37.50
3356;DHT22;1691;52.486;13.374;2023-07-09T05:24:25;29.60;37.00
3356;DHT22;1691;52.486;13.374;2023-07-09T05:26:55;29.80;36.50
3356;DHT22;1691;52.486;13.374;2023-07-09T05:29:23;30.00;36.10
3356;DHT22;1691;52.486;13.374;2023-07-09T05:31:49;30.30;35.50
3356;DHT22;1691;52.486;13.374;2023-07-09T05:34:16;30.50;35.00
3356;DHT22;1691;52.486;13.374;2023-07-09T05:36:43;30.60;34.50
3356;DHT22;1691;52.486;13.374;2023-07-09T05:39:11;30.80;34.10
3356;DHT22;1691;52.486;13.374;2023-07-09T05:41:38;30.90;33.90
3356;DHT22;1691;52.486;13.374;2023-07-09T05:44:05;31.00;33.50
3356;DHT22;1691;52.486;13.374;2023-07-09T05:46:36;31.00;33.20
3356;DHT22;1691;52.486;13.374;2023-07-09T05:49:04;31.20;32.90
3356;DHT22;1691;52.486;13.374;2023-07-09T05:51:31;31.50;32.50
3356;DHT22;1691;52.486;13.374;2023-07-09T05:53:58;31.80;32.10
3356;DHT22;1691;52.486;13.374;2023-07-09T05:56:25;32.00;31.60
3356;DHT22;1691;52.486;13.374;2023-07-09T05:58:52;32.20;31.50
3356;DHT22;1691;52.486;13.374;2023-07-09T06:01:19;32.30;31.00
3356;DHT22;1691;52.486;13.374;2023-07-09T06:03:47;32.40;30.50
3356;DHT22;1691;52.486;13.374;2023-07-09T06:06:14;32.40;30.40
3356;DHT22;1691;52.486;13.374;2023-07-09T06:08:40;32.50;30.20
3356;DHT22;1691;52.486;13.374;2023-07-09T06:11:07;32.40;30.20
3356;DHT22;1691;52.486;13.374;2023-07-09T06:13:35;32.40;30.40
3356;DHT22;1691;52.486;13.374;2023-07-09T06:16:02;32.40;30.40
3356;DHT22;1691;52.486;13.374;2023-07-09T06:18:30;32.60;30.10
3356;DHT22;1691;52.486;13.374;2023-07-09T06:20:59;32.80;29.80
3356;DHT22;1691;52.486;13.374;2023-07-09T06:23:27;33.10;29.50
3356;DHT22;1691;52.486;13.374;2023-07-09T06:25:54;33.40;29.30
3356;DHT22;1691;52.486;13.374;2023-07-09T06:28:23;33.70;29.00
3356;DHT22;1691;52.486;13.374;2023-07-09T06:30:50;34.00;28.70
3356;DHT22;1691;52.486;13.374;2023-07-09T06:33:18;34.20;28.50
3356;DHT22;1691;52.486;13.374;2023-07-09T06:35:50;34.40;28.20
3356;DHT22;1691;52.486;13.374;2023-07-09T06:38:18;34.60;28.10
3356;DHT22;1691;52.486;13.374;2023-07-09T06:40:45;35.00;27.90
3356;DHT22;1691;52.486;13.374;2023-07-09T06:43:12;35.40;27.50
3356;DHT22;1691;52.486;13.374;2023-07-09T06:45:48;35.70;27.20
3356;DHT22;1691;52.486;13.374;2023-07-09T06:48:15;36.30;26.80
3356;DHT22;1691;52.486;13.374;2023-07-09T06:50:43;36.70;26.50
3356;DHT22;1691;52.486;13.374;2023-07-09T06:53:09;37.10;26.00
3356;DHT22;1691;52.486;13.374;2023-07-09T06:55:36;37.30;25.70
3356;DHT22;1691;52.486;13.374;2023-07-09T06:58:03;37.50;25.50
3356;DHT22;1691;52.486;13.374;2023-07-09T07:00:30;37.60;25.20
3356;DHT22;1691;52.486;13.374;2023-07-09T07:02:57;37.70;25.10
3356;DHT22;1691;52.486;13.374;2023-07-09T07:05:25;37.60;25.10
3356;DHT22;1691;52.486;13.374;2023-07-09T07:07:53;37.60;25.10
3356;DHT22;1691;52.486;13.374;2023-07-09T07:10:20;37.70;25.00
3356;DHT22;1691;52.486;13.374;2023-07-09T07:12:48;38.10;24.80
3356;DHT22;1691;52.486;13.374;2023-07-09T07:15:18;38.40;24.60
3356;DHT22;1691;52.486;13.374;2023-07-09T07:17:45;38.60;24.30
3356;DHT22;1691;52.486;13.374;2023-07-09T07:20:13;38.90;24.10
3356;DHT22;1691;52.486;13.374;2023-07-09T07:22:40;39.00;24.00
3356;DHT22;1691;52.486;13.374;2023-07-09T07:25:08;39.20;23.90
3356;DHT22;1691;52.486;13.374;2023-07-09T07:27:36;39.40;23.80
3356;DHT22;1691;52.486;13.374;2023-07-09T07:30:04;39.70;23.70
3356;DHT22;1691;52.486;13.374;2023-07-09T07:32:31;40.10;23.30
3356;DHT22;1691;52.486;13.374;2023-07-09T07:34:58;40.40;23.10
3356;DHT22;1691;52.486;13.374;2023-07-09T07:37:25;40.60;22.80
3356;DHT22;1691;52.486;13.374;2023-07-09T07:39:52;40.80;22.70
3356;DHT22;1691;52.486;13.374;2023-07-09T07:42:18;40.70;22.70
3356;DHT22;1691;52.486;13.374;2023-07-09T07:44:46;40.60;22.70
3356;DHT22;1691;52.486;13.374;2023-07-09T07:47:13;40.40;22.60
3356;DHT22;1691;52.486;13.374;2023-07-09T07:49:39;40.30;22.70
3356;DHT22;1691;52.486;13.374;2023-07-09T07:52:07;40.50;22.60
3356;DHT22;1691;52.486;13.374;2023-07-09T07:54:34;40.80;22.50
3356;DHT22;1691;52.486;13.374;2023-07-09T07:57:01;41.00;22.40
3356;DHT22;1691;52.486;13.374;2023-07-09T07:59:28;41.00;22.30
3356;DHT22;1691;52.486;13.374;2023-07-09T08:01:55;41.00;22.30
3356;DHT22;1691;52.486;13.374;2023-07-09T08:04:22;41.00;22.30
3356;DHT22;1691;52.486;13.374;2023-07-09T08:06:49;41.10;22.30
3356;DHT22;1691;52.486;13.374;2023-07-09T08:09:16;41.30;22.10
3356;DHT22;1691;52.486;13.374;2023-07-09T08:11:43;41.30;22.00
3356;DHT22;1691;52.486;13.374;2023-07-09T08:14:10;41.20;22.00
3356;DHT22;1691;52.486;13.374;2023-07-09T08:16:38;41.10;22.10
3356;DHT22;1691;52.486;13.374;2023-07-09T08:19:05;41.10;22.20
3356;DHT22;1691;52.486;13.374;2023-07-09T08:21:32;41.40;22.10
3356;DHT22;1691;52.486;13.374;2023-07-09T08:23:59;41.70;21.90
3356;DHT22;1691;52.486;13.374;2023-07-09T08:26:26;41.90;21.70
3356;DHT22;1691;52.486;13.374;2023-07-09T08:28:53;41.90;21.70
3356;DHT22;1691;52.486;13.374;2023-07-09T08:31:21;42.00;21.50
3356;DHT22;1691;52.486;13.374;2023-07-09T08:33:47;42.10;21.40
3356;DHT22;1691;52.486;13.374;2023-07-09T08:36:14;42.30;21.30
3356;DHT22;1691;52.486;13.374;2023-07-09T08:38:41;42.60;21.30
3356;DHT22;1691;52.486;13.374;2023-07-09T08:41:33;42.80;21.00
3356;DHT22;1691;52.486;13.374;2023-07-09T08:44:17;43.20;20.80
3356;DHT22;1691;52.486;13.374;2023-07-09T08:47:00;43.70;20.50
3356;DHT22;1691;52.486;13.374;2023-07-09T08:49:54;44.10;20.30
3356;DHT22;1691;52.486;13.374;2023-07-09T08:52:39;44.00;19.60
3356;DHT22;1691;52.486;13.374;2023-07-09T08:55:12;43.90;19.60
3356;DHT22;1691;52.486;13.374;2023-07-09T08:57:43;44.00;19.50
3356;DHT22;1691;52.486;13.374;2023-07-09T09:00:18;44.10;19.50
3356;DHT22;1691;52.486;13.374;2023-07-09T09:05:56;44.30;19.20
3356;DHT22;1691;52.486;13.374;2023-07-09T09:08:49;44.00;19.20
3356;DHT22;1691;52.486;13.374;2023-07-09T09:14:01;43.40;19.50
3356;DHT22;1691;52.486;13.374;2023-07-09T09:16:32;43.50;19.30
3356;DHT22;1691;52.486;13.374;2023-07-09T09:19:01;43.50;19.30
3356;DHT22;1691;52.486;13.374;2023-07-09T09:21:34;43.40;19.40
3356;DHT22;1691;52.486;13.374;2023-07-09T09:24:19;43.30;19.50
3356;DHT22;1691;52.486;13.374;2023-07-09T09:26:49;43.40;19.40
3356;DHT22;1691;52.486;13.374;2023-07-09T09:29:17;43.60;19.30
3356;DHT22;1691;52.486;13.374;2023-07-09T09:31:49;43.60;19.00
3356;DHT22;1691;52.486;13.374;2023-07-09T09:34:28;43.40;18.80
3356;DHT22;1691;52.486;13.374;2023-07-09T09:36:58;43.30;18.70
3356;DHT22;1691;52.486;13.374;2023-07-09T09:39:26;43.10;18.60
3356;DHT22;1691;52.486;13.374;2023-07-09T09:41:57;43.10;18.60
3356;DHT22;1691;52.486;13.374;2023-07-09T09:44:26;43.30;18.70
3356;DHT22;1691;52.486;13.374;2023-07-09T09:46:56;43.60;18.50
3356;DHT22;1691;52.486;13.374;2023-07-09T09:49:26;43.60;17.60
3356;DHT22;1691;52.486;13.374;2023-07-09T09:51:53;43.40;17.40
3356;DHT22;1691;52.486;13.374;2023-07-09T09:54:28;43.20;17.40
3356;DHT22;1691;52.486;13.374;2023-07-09T09:56:57;43.40;17.60
3356;DHT22;1691;52.486;13.374;2023-07-09T09:59:32;43.60;17.60
3356;DHT22;1691;52.486;13.374;2023-07-09T10:02:02;43.50;17.60
3356;DHT22;1691;52.486;13.374;2023-07-09T10:04:29;43.30;17.70
3356;DHT22;1691;52.486;13.374;2023-07-09T10:07:01;43.20;17.80
3356;DHT22;1691;52.486;13.374;2023-07-09T10:09:44;43.10;17.90
3356;DHT22;1691;52.486;13.374;2023-07-09T10:21:15;41.70;18.40
3356;DHT22;1691;52.486;13.374;2023-07-09T10:26:26;40.40;19.40
3356;DHT22;1691;52.486;13.374;2023-07-09T10:28:58;40.00;19.80
3356;DHT22;1691;52.486;13.374;2023-07-09T10:34:43;39.50;20.40
3356;DHT22;1691;52.486;13.374;2023-07-09T10:37:19;39.50;20.50
3356;DHT22;1691;52.486;13.374;2023-07-09T10:39:51;39.40;20.40
3356;DHT22;1691;52.486;13.374;2023-07-09T10:42:24;39.10;20.50
3356;DHT22;1691;52.486;13.374;2023-07-09T10:44:58;38.70;20.90
3356;DHT22;1691;52.486;13.374;2023-07-09T10:47:59;38.50;21.20
3356;DHT22;1691;52.486;13.374;2023-07-09T10:50:31;38.40;21.60
3356;DHT22;1691;52.486;13.374;2023-07-09T10:53:38;38.20;22.00
3356;DHT22;1691;52.486;13.374;2023-07-09T10:55:58;38.30;22.00
3356;DHT22;1691;52.486;13.374;2023-07-09T10:58:43;38.20;22.00
3356;DHT22;1691;52.486;13.374;2023-07-09T11:01:14;37.80;22.20
3356;DHT22;1691;52.486;13.374;2023-07-09T11:03:52;37.50;22.40
3356;DHT22;1691;52.486;13.374;2023-07-09T11:06:39;37.40;22.60
3356;DHT22;1691;52.486;13.374;2023-07-09T11:09:21;37.30;22.60
3356;DHT22;1691;52.486;13.374;2023-07-09T11:11:51;37.10;22.80
3356;DHT22;1691;52.486;13.374;2023-07-09T11:14:39;36.90;23.10
3356;DHT22;1691;52.486;13.374;2023-07-09T11:17:19;36.80;23.30
3356;DHT22;1691;52.486;13.374;2023-07-09T11:19:52;36.70;23.50
3356;DHT22;1691;52.486;13.374;2023-07-09T11:22:26;36.50;23.60
3356;DHT22;1691;52.486;13.374;2023-07-09T11:25:08;36.40;23.60
3356;DHT22;1691;52.486;13.374;2023-07-09T11:27:49;36.00;23.80
3356;DHT22;1691;52.486;13.374;2023-07-09T11:30:24;35.70;24.10
3356;DHT22;1691;52.486;13.374;2023-07-09T11:32:57;35.40;24.30
3356;DHT22;1691;52.486;13.374;2023-07-09T11:35:50;35.00;24.60
3356;DHT22;1691;52.486;13.374;2023-07-09T11:38:23;34.60;25.10
3356;DHT22;1691;52.486;13.374;2023-07-09T11:40:55;34.30;25.40
3356;DHT22;1691;52.486;13.374;2023-07-09T11:43:33;34.20;25.60
3356;DHT22;1691;52.486;13.374;2023-07-09T11:46:24;34.10;25.80
3356;DHT22;1691;52.486;13.374;2023-07-09T11:48:55;34.10;26.10
3356;DHT22;1691;52.486;13.374;2023-07-09T11:51:46;33.90;26.20
3356;DHT22;1691;52.486;13.374;2023-07-09T11:54:18;33.60;26.50
3356;DHT22;1691;52.486;13.374;2023-07-09T11:56:56;33.50;26.60
3356;DHT22;1691;52.486;13.374;2023-07-09T11:59:23;33.50;26.70
3356;DHT22;1691;52.486;13.374;2023-07-09T12:01:51;33.50;26.70
3356;DHT22;1691;52.486;13.374;2023-07-09T12:04:26;33.40;26.90
3356;DHT22;1691;52.486;13.374;2023-07-09T12:06:58;33.40;27.10
3356;DHT22;1691;52.486;13.374;2023-07-09T12:09:31;33.40;27.30
3356;DHT22;1691;52.486;13.374;2023-07-09T12:11:58;33.50;27.30
3356;DHT22;1691;52.486;13.374;2023-07-09T12:14:25;33.50;27.30
3356;DHT22;1691;52.486;13.374;2023-07-09T12:16:54;33.40;27.40
3356;DHT22;1691;52.486;13.374;2023-07-09T12:19:23;33.30;27.60
3356;DHT22;1691;52.486;13.374;2023-07-09T12:21:56;33.10;27.60
3356;DHT22;1691;52.486;13.374;2023-07-09T12:24:30;33.00;27.70
3356;DHT22;1691;52.486;13.374;2023-07-09T12:26:59;32.90;27.90
3356;DHT22;1691;52.486;13.374;2023-07-09T12:29:29;32.80;27.90
3356;DHT22;1691;52.486;13.374;2023-07-09T12:31:57;32.70;28.00
3356;DHT22;1691;52.486;13.374;2023-07-09T12:34:25;32.60;28.00
3356;DHT22;1691;52.486;13.374;2023-07-09T12:36:52;32.50;28.00
3356;DHT22;1691;52.486;13.374;2023-07-09T12:39:24;32.60;28.00
3356;DHT22;1691;52.486;13.374;2023-07-09T12:41:55;32.60;28.00
3356;DHT22;1691;52.486;13.374;2023-07-09T12:44:23;32.60;28.00
3356;DHT22;1691;52.486;13.374;2023-07-09T12:46:52;32.50;28.10
3356;DHT22;1691;52.486;13.374;2023-07-09T12:49:31;32.50;28.20
3356;DHT22;1691;52.486;13.374;2023-07-09T12:52:15;32.60;28.50
3356;DHT22;1691;52.486;13.374;2023-07-09T12:55:01;32.70;28.40
3356;DHT22;1691;52.486;13.374;2023-07-09T12:57:29;32.70;28.30
3356;DHT22;1691;52.486;13.374;2023-07-09T12:59:58;32.60;28.30
3356;DHT22;1691;52.486;13.374;2023-07-09T13:02:28;32.50;28.10
3356;DHT22;1691;52.486;13.374;2023-07-09T13:05:04;32.50;28.20
3356;DHT22;1691;52.486;13.374;2023-07-09T13:07:35;32.60;28.20
3356;DHT22;1691;52.486;13.374;2023-07-09T13:12:34;32.60;28.30
3356;DHT22;1691;52.486;13.374;2023-07-09T13:15:05;32.60;28.30
3356;DHT22;1691;52.486;13.374;2023-07-09T13:17:32;32.60;28.30
3356;DHT22;1691;52.486;13.374;2023-07-09T13:19:59;32.50;28.30
3356;DHT22;1691;52.486;13.374;2023-07-09T13:22:28;32.50;28.30
3356;DHT22;1691;52.486;13.374;2023-07-09T13:24:55;32.50;28.30
3356;DHT22;1691;52.486;13.374;2023-07-09T13:27:22;32.50;28.20
3356;DHT22;1691;52.486;13.374;2023-07-09T13:29:50;32.50;28.10
3356;DHT22;1691;52.486;13.374;2023-07-09T13:32:18;32.50;28.20
3356;DHT22;1691;52.486;13.374;2023-07-09T13:34:45;32.50;28.10
3356;DHT22;1691;52.486;13.374;2023-07-09T13:37:15;32.60;28.10
3356;DHT22;1691;52.486;13.374;2023-07-09T13:39:43;32.60;28.10
3356;DHT22;1691;52.486;13.374;2023-07-09T13:42:16;32.50;27.90
3356;DHT22;1691;52.486;13.374;2023-07-09T13:44:45;32.50;27.90
3356;DHT22;1691;52.486;13.374;2023-07-09T13:47:15;32.50;27.90
3356;DHT22;1691;52.486;13.374;2023-07-09T13:49:45;32.60;27.90
3356;DHT22;1691;52.486;13.374;2023-07-09T13:52:23;32.70;27.80
3356;DHT22;1691;52.486;13.374;2023-07-09T13:54:50;32.70;27.70
3356;DHT22;1691;52.486;13.374;2023-07-09T13:57:19;32.70;27.60
3356;DHT22;1691;52.486;13.374;2023-07-09T13:59:48;32.80;27.60
3356;DHT22;1691;52.486;13.374;2023-07-09T14:02:24;32.80;27.60
3356;DHT22;1691;52.486;13.374;2023-07-09T14:04:56;32.80;27.60
3356;DHT22;1691;52.486;13.374;2023-07-09T14:07:29;32.90;27.50
3356;DHT22;1691;52.486;13.374;2023-07-09T14:09:59;33.00;27.50
3356;DHT22;1691;52.486;13.374;2023-07-09T14:12:27;33.00;27.30
3356;DHT22;1691;52.486;13.374;2023-07-09T14:14:57;32.90;27.30
3356;DHT22;1691;52.486;13.374;2023-07-09T14:17:25;32.80;27.30
3356;DHT22;1691;52.486;13.374;2023-07-09T14:19:53;32.80;27.30
3356;DHT22;1691;52.486;13.374;2023-07-09T14:24:47;33.00;27.00
3356;DHT22;1691;52.486;13.374;2023-07-09T14:27:14;32.90;27.20
3356;DHT22;1691;52.486;13.374;2023-07-09T14:29:41;32.90;27.40
3356;DHT22;1691;52.486;13.374;2023-07-09T14:34:58;32.80;27.60
3356;DHT22;1691;52.486;13.374;2023-07-09T14:37:25;32.80;27.60
3356;DHT22;1691;52.486;13.374;2023-07-09T14:39:53;32.80;27.50
3356;DHT22;1691;52.486;13.374;2023-07-09T14:42:20;32.80;27.60
3356;DHT22;1691;52.486;13.374;2023-07-09T14:44:49;32.80;27.60
3356;DHT22;1691;52.486;13.374;2023-07-09T14:47:20;32.90;27.60
3356;DHT22;1691;52.486;13.374;2023-07-09T14:49:48;32.90;27.60
3356;DHT22;1691;52.486;13.374;2023-07-09T14:52:18;32.80;27.60
3356;DHT22;1691;52.486;13.374;2023-07-09T14:54:45;32.70;27.70
3356;DHT22;1691;52.486;13.374;2023-07-09T14:57:22;32.70;27.70
3356;DHT22;1691;52.486;13.374;2023-07-09T14:59:50;32.70;27.80
3356;DHT22;1691;52.486;13.374;2023-07-09T15:02:35;32.70;27.80
3356;DHT22;1691;52.486;13.374;2023-07-09T15:05:10;32.70;27.70
3356;DHT22;1691;52.486;13.374;2023-07-09T15:07:38;32.70;27.60
3356;DHT22;1691;52.486;13.374;2023-07-09T15:10:05;32.70;27.60
3356;DHT22;1691;52.486;13.374;2023-07-09T15:12:35;32.70;27.60
3356;DHT22;1691;52.486;13.374;2023-07-09T15:15:26;32.70;27.60
3356;DHT22;1691;52.486;13.374;2023-07-09T15:17:55;32.70;27.60
3356;DHT22;1691;52.486;13.374;2023-07-09T15:20:25;32.80;27.50
3356;DHT22;1691;52.486;13.374;2023-07-09T15:22:55;32.80;27.50
3356;DHT22;1691;52.486;13.374;2023-07-09T15:25:25;32.80;27.70
3356;DHT22;1691;52.486;13.374;2023-07-09T15:27:52;32.80;27.60
3356;DHT22;1691;52.486;13.374;2023-07-09T15:30:27;32.70;27.60
3356;DHT22;1691;52.486;13.374;2023-07-09T15:32:57;32.60;27.80
3356;DHT22;1691;52.486;13.374;2023-07-09T15:35:34;32.60;27.90
3356;DHT22;1691;52.486;13.374;2023-07-09T15:38:18;32.60;28.00
3356;DHT22;1691;52.486;13.374;2023-07-09T15:40:47;32.60;28.00
3356;DHT22;1691;52.486;13.374;2023-07-09T15:43:15;32.60;28.00
3356;DHT22;1691;52.486;13.374;2023-07-09T15:45:47;32.60;28.10
3356;DHT22;1691;52.486;13.374;2023-07-09T15:48:32;32.60;28.00
3356;DHT22;1691;52.486;13.374;2023-07-09T15:51:00;32.60;28.00
3356;DHT22;1691;52.486;13.374;2023-07-09T15:53:28;32.60;28.00
3356;DHT22;1691;52.486;13.374;2023-07-09T15:56:03;32.50;28.00
3356;DHT22;1691;52.486;13.374;2023-07-09T15:58:42;32.40;28.10
3356;DHT22;1691;52.486;13.374;2023-07-09T16:01:11;32.30;28.10
3356;DHT22;1691;52.486;13.374;2023-07-09T16:03:39;32.30;28.20
3356;DHT22;1691;52.486;13.374;2023-07-09T16:06:06;32.20;28.20
3356;DHT22;1691;52.486;13.374;2023-07-09T16:08:32;32.20;28.30
3356;DHT22;1691;52.486;13.374;2023-07-09T16:11:00;32.20;28.40
3356;DHT22;1691;52.486;13.374;2023-07-09T16:13:28;32.20;28.50
3356;DHT22;1691;52.486;13.374;2023-07-09T16:15:54;32.20;28.40
3356;DHT22;1691;52.486;13.374;2023-07-09T16:18:21;32.20;28.30
3356;DHT22;1691;52.486;13.374;2023-07-09T16:20:48;32.20;28.30
3356;DHT22;1691;52.486;13.374;2023-07-09T16:23:18;32.20;28.30
3356;DHT22;1691;52.486;13.374;2023-07-09T16:25:47;32.20;28.30
3356;DHT22;1691;52.486;13.374;2023-07-09T16:28:15;32.20;28.40
3356;DHT22;1691;52.486;13.374;2023-07-09T16:30:45;32.20;28.50
3356;DHT22;1691;52.486;13.374;2023-07-09T16:33:13;32.10;28.50
3356;DHT22;1691;52.486;13.374;2023-07-09T16:35:40;32.10;28.40
3356;DHT22;1691;52.486;13.374;2023-07-09T16:38:11;32.00;28.60